Time;durP1;ratioP1;P1;durP2;ratioP2;P2;SDS_P1;SDS_P2;PMS_P1;PMS_P2;Temp;Humidity;BMP_temperature;BMP_pressure;BME280_temperature;BME280_humidity;BME280_pressure;Samples;Min_cycle;Max_cycle;Signal;HPM_P1;HPM_P2
2022/07/07 00:00:08;;;;;;;2.73;1.00;;;;;;;16.90;71.54;100856.09;5093629;28;20611;-75
2022/07/07 00:02:34;;;;;;;2.47;1.00;;;;;;;16.88;72.46;100832.41;5092502;28;20776;-75
2022/07/07 00:05:01;;;;;;;2.00;1.17;;;;;;;16.88;73.07;100815.72;5093221;28;20616;-75
2022/07/07 00:07:27;;;;;;;1.27;1.00;;;;;;;16.73;73.94;100787.28;5087357;28;20220;-75
2022/07/07 00:09:53;;;;;;;3.80;2.10;;;;;;;16.72;73.40;100785.59;5086129;28;20224;-75
2022/07/07 00:12:22;;;;;;;2.23;1.10;;;;;;;16.75;73.54;100788.97;5093332;28;20561;-74
2022/07/07 00:14:48;;;;;;;2.80;1.20;;;;;;;16.26;74.97;100756.59;5092973;28;20668;-75
2022/07/07 00:17:14;;;;;;;1.83;1.13;;;;;;;16.43;74.88;100738.38;5093306;28;20237;-75
2022/07/07 00:19:41;;;;;;;1.73;1.30;;;;;;;16.36;75.11;100731.59;5093542;28;20206;-75
2022/07/07 00:22:07;;;;;;;1.87;1.00;;;;;;;16.47;76.06;100710.09;5093169;28;20597;-75
2022/07/07 00:24:34;;;;;;;4.17;1.20;;;;;;;16.57;77.41;100669.31;5092945;28;20211;-75
2022/07/07 00:27:00;;;;;;;1.53;1.10;;;;;;;16.57;78.48;100637.69;5092623;28;20207;-74
2022/07/07 00:29:28;;;;;;;3.00;1.03;;;;;;;16.63;78.44;100633.91;5092948;28;20227;-75
2022/07/07 00:31:54;;;;;;;1.33;0.93;;;;;;;16.67;77.42;100630.25;5092926;28;20214;-74
2022/07/07 00:34:21;;;;;;;2.00;1.37;;;;;;;16.57;76.81;100642.94;5093266;28;20207;-74
2022/07/07 00:36:48;;;;;;;1.97;1.27;;;;;;;16.27;77.90;100639.75;5087455;28;20265;-75
2022/07/07 00:39:14;;;;;;;1.70;1.50;;;;;;;16.34;77.52;100629.84;5084448;28;20203;-75
2022/07/07 00:41:41;;;;;;;1.53;1.43;;;;;;;16.36;78.16;100625.38;5092664;28;20684;-75
2022/07/07 00:44:12;;;;;;;2.17;1.87;;;;;;;16.40;77.76;100624.31;5092825;28;20203;-75
2022/07/07 00:46:44;;;;;;;2.07;1.80;;;;;;;16.31;77.45;100629.94;5092726;28;20278;-75
2022/07/07 00:49:11;;;;;;;2.30;1.80;;;;;;;16.39;78.41;100612.94;5092733;28;20276;-75
2022/07/07 00:51:37;;;;;;;2.07;1.63;;;;;;;16.35;78.15;100618.38;5092557;28;20252;-75
2022/07/07 00:54:04;;;;;;;3.67;1.73;;;;;;;16.30;77.66;100628.25;5092038;28;20264;-75
2022/07/07 00:56:31;;;;;;;2.57;2.37;;;;;;;15.98;78.83;100617.19;5092102;28;20672;-75
2022/07/07 00:59:02;;;;;;;2.70;1.80;;;;;;;15.85;79.71;100587.84;5092600;28;20231;-75
2022/07/07 01:01:29;;;;;;;3.90;2.33;;;;;;;15.68;80.07;100573.53;5092674;28;20206;-75
2022/07/07 01:03:59;;;;;;;2.10;1.97;;;;;;;15.77;80.40;100540.75;5092341;28;20904;-75
2022/07/07 01:06:26;;;;;;;2.47;2.00;;;;;;;15.87;80.51;100542.09;5087324;28;20220;-75
2022/07/07 01:08:53;;;;;;;2.30;2.10;;;;;;;16.00;80.57;100542.50;5083317;28;20278;-75
2022/07/07 01:11:19;;;;;;;3.33;2.10;;;;;;;16.00;80.38;100539.00;5092560;28;20208;-75
2022/07/07 01:13:46;;;;;;;4.17;2.00;;;;;;;16.15;79.85;100550.69;5091961;28;20256;-75
2022/07/07 01:16:12;;;;;;;2.73;2.07;;;;;;;16.15;80.57;100554.16;5092113;28;20338;-75
2022/07/07 01:18:39;;;;;;;2.93;2.53;;;;;;;16.07;81.31;100525.53;5092013;28;20720;-75
2022/07/07 01:21:10;;;;;;;2.20;2.00;;;;;;;16.17;80.67;100519.88;5091939;28;20850;-75
2022/07/07 01:23:38;;;;;;;3.10;2.30;;;;;;;16.17;80.57;100527.78;5092056;28;20246;-75
2022/07/07 01:26:04;;;;;;;2.93;2.60;;;;;;;16.01;82.11;100509.97;5092090;28;20619;-77
2022/07/07 01:28:31;;;;;;;3.77;2.43;;;;;;;15.96;82.68;100496.13;5092050;28;20275;-75
2022/07/07 01:30:58;;;;;;;2.83;2.57;;;;;;;16.03;82.48;100478.31;5092332;28;20274;-76
2022/07/07 01:33:24;;;;;;;3.17;2.67;;;;;;;15.85;82.80;100475.50;5091996;28;20280;-76
2022/07/07 01:35:51;;;;;;;2.90;2.60;;;;;;;15.91;83.19;100477.03;5091419;28;20213;-76
2022/07/07 01:38:17;;;;;;;4.47;3.37;;;;;;;15.89;83.36;100468.34;5078889;28;20224;-76
2022/07/07 01:40:45;;;;;;;3.30;3.00;;;;;;;15.96;83.29;100468.97;5091736;28;20237;-76
2022/07/07 01:43:12;;;;;;;3.43;3.00;;;;;;;16.01;83.51;100448.56;5091821;28;20211;-75
2022/07/07 01:45:38;;;;;;;3.13;2.90;;;;;;;15.82;83.95;100445.84;5091615;28;20264;-76
2022/07/07 01:48:04;;;;;;;5.63;3.03;;;;;;;15.85;84.12;100436.00;5091795;28;20226;-76
2022/07/07 01:50:31;;;;;;;3.43;3.13;;;;;;;15.89;84.21;100424.44;5091591;28;20852;-76
2022/07/07 01:52:58;;;;;;;5.73;3.27;;;;;;;15.73;84.57;100418.09;5091790;28;20206;-76
2022/07/07 01:55:24;;;;;;;3.43;2.60;;;;;;;15.78;84.54;100405.63;5091512;28;20250;-76
2022/07/07 01:57:52;;;;;;;3.40;3.10;;;;;;;15.85;85.14;100407.06;5091559;28;20226;-76
2022/07/07 02:00:19;;;;;;;4.20;3.10;;;;;;;15.78;85.54;100389.81;5091750;28;20234;-76
2022/07/07 02:02:45;;;;;;;3.93;3.23;;;;;;;15.77;84.80;100400.41;5091953;28;20241;-76
2022/07/07 02:05:11;;;;;;;4.17;3.80;;;;;;;15.58;86.09;100381.84;5091602;28;20279;-76
2022/07/07 02:07:38;;;;;;;4.10;3.70;;;;;;;15.64;86.50;100364.03;5084199;28;20226;-76
2022/07/07 02:10:05;;;;;;;4.20;3.70;;;;;;;15.71;85.63;100372.53;5085578;28;20272;-76
2022/07/07 02:12:31;;;;;;;4.47;3.47;;;;;;;15.72;86.12;100354.97;5091774;28;20214;-76
2022/07/07 02:14:59;;;;;;;3.80;3.60;;;;;;;15.73;86.26;100357.56;5091225;28;20674;-76
2022/07/07 02:17:26;;;;;;;4.10;3.80;;;;;;;15.40;86.84;100363.28;5091220;28;20236;-76
2022/07/07 02:19:52;;;;;;;4.03;3.73;;;;;;;15.47;87.64;100327.88;5091845;28;20208;-75
2022/07/07 02:22:19;;;;;;;4.33;4.00;;;;;;;15.41;87.97;100320.25;5091790;28;20256;-76
2022/07/07 02:24:47;;;;;;;4.33;4.03;;;;;;;15.49;87.99;100325.19;5091442;28;20219;-76
2022/07/07 02:27:13;;;;;;;4.77;4.47;;;;;;;15.54;87.77;100333.78;5095010;28;20232;-76
2022/07/07 02:29:39;;;;;;;5.20;4.80;;;;;;;15.38;88.70;100316.88;5095541;28;20228;-76
2022/07/07 02:32:08;;;;;;;5.17;4.87;;;;;;;15.48;87.63;100323.50;5095088;28;20214;-76
2022/07/07 02:34:34;;;;;;;5.70;5.20;;;;;;;15.60;87.75;100328.25;5095599;28;20301;-76
2022/07/07 02:37:01;;;;;;;5.53;5.10;;;;;;;15.68;87.65;100335.84;5089984;28;20199;-76
2022/07/07 02:39:27;;;;;;;4.83;4.43;;;;;;;15.67;87.64;100329.69;5086508;28;20607;-76
2022/07/07 02:41:54;;;;;;;5.13;4.80;;;;;;;15.57;88.01;100330.16;5094985;28;20204;-76
2022/07/07 02:44:20;;;;;;;5.93;5.53;;;;;;;15.61;88.56;100315.94;5094898;28;20611;-76
2022/07/07 02:46:47;;;;;;;6.00;5.60;;;;;;;15.59;87.69;100317.78;5094940;28;20211;-76
2022/07/07 02:49:14;;;;;;;5.30;4.90;;;;;;;15.64;88.17;100321.09;5095347;28;20204;-76
2022/07/07 02:51:41;;;;;;;5.17;4.87;;;;;;;15.50;88.40;100334.81;5094990;28;20226;-75
2022/07/07 02:54:07;;;;;;;5.90;5.50;;;;;;;15.56;88.74;100313.50;5094720;28;20215;-75
2022/07/07 02:56:33;;;;;;;6.60;6.00;;;;;;;15.48;89.14;100303.31;5094203;28;20267;-75
2022/07/07 02:59:00;;;;;;;6.87;6.37;;;;;;;15.34;89.33;100312.66;5095111;28;20282;-75
2022/07/07 03:01:26;;;;;;;7.23;6.73;;;;;;;15.38;90.34;100277.44;5094771;28;20839;-76
2022/07/07 03:03:53;;;;;;;7.07;6.57;;;;;;;15.52;90.34;100271.59;5094833;28;20204;-75
2022/07/07 03:06:20;;;;;;;7.07;6.57;;;;;;;15.40;89.94;100286.13;5089997;28;20210;-76
2022/07/07 03:08:47;;;;;;;7.20;6.60;;;;;;;15.50;89.99;100292.72;5074104;28;20275;-75
2022/07/07 03:11:13;;;;;;;6.67;6.17;;;;;;;15.55;89.61;100301.25;5074476;28;20242;-76
2022/07/07 03:13:40;;;;;;;7.93;7.23;;;;;;;15.38;90.41;100286.19;5074551;28;20209;-76
2022/07/07 03:16:06;;;;;;;7.13;6.63;;;;;;;15.28;90.61;100290.09;5074284;28;20234;-75
2022/07/07 03:18:33;;;;;;;6.87;6.37;;;;;;;15.43;90.45;100278.97;5074494;28;20255;-75
2022/07/07 03:20:59;;;;;;;7.20;6.70;;;;;;;15.48;90.30;100286.69;5074399;28;20211;-76
2022/07/07 03:23:27;;;;;;;7.67;7.10;;;;;;;15.61;90.00;100287.84;5073998;28;20211;-76
2022/07/07 03:25:54;;;;;;;7.23;6.73;;;;;;;15.68;89.58;100299.84;5074089;28;20263;-76
2022/07/07 03:28:20;;;;;;;7.93;7.23;;;;;;;15.70;89.47;100315.56;5074125;28;20279;-76
2022/07/07 03:30:47;;;;;;;6.60;6.17;;;;;;;15.77;88.97;100321.44;5074172;28;20268;-76
2022/07/07 03:33:13;;;;;;;7.93;7.30;;;;;;;15.84;88.95;100329.03;5073682;28;20738;-75
2022/07/07 03:35:40;;;;;;;8.90;8.30;;;;;;;15.82;88.74;100322.97;5073626;28;20752;-76
2022/07/07 03:38:06;;;;;;;8.90;8.20;;;;;;;15.82;89.22;100324.75;5079146;28;20227;-76
2022/07/07 03:40:35;;;;;;;8.80;8.20;;;;;;;15.80;88.81;100323.97;5092287;28;20207;-76
2022/07/07 03:43:01;;;;;;;8.93;8.13;;;;;;;15.86;88.76;100327.19;5094097;28;20301;-76
2022/07/07 03:45:27;;;;;;;8.73;8.03;;;;;;;15.90;89.07;100325.28;5093342;28;20203;-76
2022/07/07 03:47:54;;;;;;;8.43;7.80;;;;;;;15.86;89.22;100307.91;5093894;28;20317;-76
2022/07/07 03:50:20;;;;;;;8.50;7.90;;;;;;;15.80;89.26;100311.66;5094054;28;20278;-76
2022/07/07 03:52:47;;;;;;;9.30;8.63;;;;;;;15.79;89.98;100294.13;5093920;28;20215;-76
2022/07/07 03:55:13;;;;;;;8.87;8.27;;;;;;;15.88;89.87;100287.63;5093034;28;20264;-76
2022/07/07 03:57:41;;;;;;;8.93;8.33;;;;;;;15.89;90.18;100281.44;5093549;28;20728;-75
2022/07/07 04:00:09;;;;;;;9.93;9.13;;;;;;;15.68;90.50;100280.56;5093646;28;20698;-75
2022/07/07 04:02:36;;;;;;;9.77;8.87;;;;;;;15.73;89.43;100290.94;5093350;28;20616;-75
2022/07/07 04:05:02;;;;;;;9.90;9.10;;;;;;;15.78;90.31;100287.19;5093571;28;20198;-76
2022/07/07 04:07:29;;;;;;;9.30;8.70;;;;;;;15.82;90.53;100269.47;5087142;28;20726;-76
2022/07/07 04:09:55;;;;;;;9.27;8.57;;;;;;;15.81;90.46;100271.25;5085921;28;20198;-76
2022/07/07 04:12:22;;;;;;;8.47;7.70;;;;;;;15.82;90.44;100274.75;5093499;28;20211;-75
2022/07/07 04:14:49;;;;;;;8.20;7.50;;;;;;;15.85;90.26;100264.06;5093316;28;20207;-76
2022/07/07 04:17:16;;;;;;;8.27;7.67;;;;;;;15.78;90.44;100270.53;5093446;28;20230;-75
2022/07/07 04:19:42;;;;;;;8.30;7.70;;;;;;;15.74;90.76;100267.19;5093095;28;20224;-75
2022/07/07 04:22:09;;;;;;;7.93;7.30;;;;;;;15.83;90.44;100265.91;5075966;28;20218;-75
2022/07/07 04:24:35;;;;;;;6.60;6.20;;;;;;;15.86;90.79;100273.69;5064660;28;20672;-75
2022/07/07 04:27:02;;;;;;;8.13;7.43;;;;;;;15.90;90.84;100270.00;5063140;28;20237;-76
2022/07/07 04:29:29;;;;;;;9.10;8.40;;;;;;;15.77;91.23;100263.56;5061753;28;20205;-75
2022/07/07 04:31:57;;;;;;;7.47;7.07;;;;;;;15.84;91.09;100259.75;5062147;28;20287;-75
2022/07/07 04:34:23;;;;;;;9.03;8.43;;;;;;;15.92;91.42;100243.63;5063475;28;20203;-77
2022/07/07 04:36:50;;;;;;;8.33;7.67;;;;;;;15.85;91.44;100251.75;5066598;28;20204;-76
2022/07/07 04:39:16;;;;;;;8.90;8.07;;;;;;;15.80;91.90;100251.13;5069592;28;20273;-77
2022/07/07 04:41:42;;;;;;;8.97;8.23;;;;;;;15.71;92.50;100240.09;5063181;28;20196;-76
2022/07/07 04:44:09;;;;;;;9.17;8.47;;;;;;;15.81;92.26;100236.19;5061334;28;20664;-76
2022/07/07 04:46:35;;;;;;;9.07;8.47;;;;;;;15.58;93.58;100216.97;5061525;28;20673;-76
2022/07/07 04:49:03;;;;;;;8.63;8.03;;;;;;;15.49;94.80;100202.41;5062497;28;20227;-76
2022/07/07 04:51:30;;;;;;;9.13;8.53;;;;;;;15.54;95.17;100190.81;5061425;28;20220;-75
2022/07/07 04:53:56;;;;;;;8.97;8.37;;;;;;;15.67;94.47;100197.28;5061538;28;20199;-76
2022/07/07 04:56:23;;;;;;;8.90;8.20;;;;;;;15.62;94.79;100201.91;5062681;28;20281;-76
2022/07/07 04:58:49;;;;;;;8.40;7.90;;;;;;;15.69;95.01;100196.28;5060835;28;20217;-76
2022/07/07 05:01:16;;;;;;;8.60;7.93;;;;;;;15.74;94.25;100205.78;5061866;28;20191;-76
2022/07/07 05:03:42;;;;;;;8.50;7.90;;;;;;;15.79;94.39;100206.44;5062826;28;20203;-76
2022/07/07 05:06:11;;;;;;;9.00;8.40;;;;;;;15.79;94.23;100216.97;5060592;28;20200;-76
2022/07/07 05:08:37;;;;;;;7.97;7.47;;;;;;;15.81;93.84;100218.59;5073561;28;20315;-76
2022/07/07 05:11:04;;;;;;;8.97;8.27;;;;;;;15.78;94.32;100220.53;5062905;28;20726;-77
2022/07/07 05:13:30;;;;;;;9.30;8.60;;;;;;;15.73;94.60;100220.72;5061070;28;20211;-77
2022/07/07 05:15:57;;;;;;;8.80;8.20;;;;;;;15.66;95.13;100214.00;5060683;28;20204;-76
2022/07/07 05:18:23;;;;;;;8.90;8.30;;;;;;;15.73;94.90;100204.09;5062613;28;20223;-76
2022/07/07 05:20:50;;;;;;;9.60;9.00;;;;;;;15.70;95.51;100207.69;5060890;28;20208;-77
2022/07/07 05:23:18;;;;;;;8.10;7.60;;;;;;;15.71;95.07;100205.91;5061660;28;20249;-76
2022/07/07 05:25:44;;;;;;;10.17;9.37;;;;;;;15.75;94.65;100220.66;5061924;28;20670;-77
2022/07/07 05:28:11;;;;;;;9.50;8.83;;;;;;;15.73;95.73;100202.28;5060683;28;20220;-76
2022/07/07 05:30:37;;;;;;;8.73;8.23;;;;;;;15.69;95.94;100187.53;5061268;28;20237;-76
2022/07/07 05:33:07;;;;;;;8.13;7.57;;;;;;;15.71;96.00;100201.47;5062505;28;20198;-76
2022/07/07 05:35:34;;;;;;;7.90;7.40;;;;;;;15.83;95.36;100211.50;5061201;28;20209;-77
2022/07/07 05:38:00;;;;;;;7.77;7.27;;;;;;;15.82;95.23;100222.97;5062811;28;20247;-77
2022/07/07 05:40:28;;;;;;;7.20;6.80;;;;;;;15.84;94.98;100226.38;5062565;28;20200;-77
2022/07/07 05:42:54;;;;;;;6.97;6.57;;;;;;;15.65;95.99;100215.75;5061115;28;20731;-77
2022/07/07 05:45:21;;;;;;;6.97;6.57;;;;;;;15.79;95.86;100214.34;5061961;28;20231;-76
2022/07/07 05:47:47;;;;;;;7.97;7.47;;;;;;;15.86;96.06;100215.78;5060262;28;20647;-77
2022/07/07 05:50:14;;;;;;;7.10;6.60;;;;;;;15.91;96.23;100212.94;5061623;28;20606;-76
2022/07/07 05:52:41;;;;;;;8.27;7.67;;;;;;;15.99;95.67;100218.72;5062010;28;20269;-77
2022/07/07 05:55:08;;;;;;;8.63;8.13;;;;;;;16.06;95.54;100225.41;5061379;28;20204;-76
2022/07/07 05:57:36;;;;;;;7.47;6.97;;;;;;;16.08;94.72;100240.22;5061385;28;20324;-76
2022/07/07 06:00:04;;;;;;;8.03;7.50;;;;;;;16.20;94.40;100253.75;5061588;28;20735;-77
2022/07/07 06:02:30;;;;;;;8.13;7.63;;;;;;;16.20;94.30;100245.84;5065689;28;20204;-77
2022/07/07 06:04:57;;;;;;;7.97;7.47;;;;;;;16.27;93.96;100270.97;5065124;28;20197;-77
2022/07/07 06:07:23;;;;;;;8.53;7.93;;;;;;;16.28;93.63;100276.19;5066535;28;20270;-77
2022/07/07 06:09:50;;;;;;;7.60;7.20;;;;;;;16.25;93.93;100264.94;5066579;28;20708;-76
2022/07/07 06:12:17;;;;;;;8.80;8.30;;;;;;;16.21;94.08;100273.88;5064743;28;20228;-76
2022/07/07 06:14:45;;;;;;;8.57;8.07;;;;;;;16.13;94.82;100258.44;5065669;28;20199;-77
2022/07/07 06:17:11;;;;;;;7.87;7.33;;;;;;;16.18;95.13;100250.34;5064411;28;20224;-77
2022/07/07 06:19:37;;;;;;;8.40;7.97;;;;;;;16.16;94.92;100254.81;5064615;28;20209;-77
2022/07/07 06:22:05;;;;;;;8.70;8.20;;;;;;;16.18;95.28;100242.44;5065497;28;20198;-77
2022/07/07 06:24:31;;;;;;;9.07;8.53;;;;;;;16.19;95.30;100266.06;5063967;28;20613;-76
2022/07/07 06:26:58;;;;;;;9.97;9.37;;;;;;;16.12;96.03;100261.16;5065185;28;20207;-77
2022/07/07 06:29:24;;;;;;;9.77;9.17;;;;;;;16.13;95.86;100247.03;5063991;28;20203;-76
2022/07/07 06:31:52;;;;;;;10.80;10.10;;;;;;;16.23;95.55;100254.47;5063718;28;20223;-77
2022/07/07 06:34:18;;;;;;;11.50;10.70;;;;;;;16.25;96.28;100254.38;5064077;28;20200;-76
2022/07/07 06:36:45;;;;;;;11.57;10.87;;;;;;;16.25;96.54;100255.28;5068259;28;20203;-77
2022/07/07 06:39:11;;;;;;;12.07;11.27;;;;;;;15.92;97.55;100251.50;5077655;28;20261;-78
2022/07/07 06:41:40;;;;;;;12.73;11.93;;;;;;;15.94;98.44;100223.34;5074903;28;20202;-77
2022/07/07 06:44:07;;;;;;;14.57;13.47;;;;;;;15.89;99.43;100218.25;5074994;28;20207;-76
2022/07/07 06:46:33;;;;;;;14.27;13.27;;;;;;;15.92;100.00;100202.34;5074874;28;20218;-77
2022/07/07 06:49:01;;;;;;;15.97;14.97;;;;;;;16.05;99.97;100210.53;5074491;28;20236;-76
2022/07/07 06:51:27;;;;;;;13.70;12.80;;;;;;;16.15;99.48;100221.50;5074850;28;20224;-77
2022/07/07 06:53:54;;;;;;;13.53;12.63;;;;;;;16.15;99.14;100232.03;5074927;28;20215;-78
2022/07/07 06:56:21;;;;;;;16.47;15.37;;;;;;;16.15;99.32;100227.63;5074766;28;20208;-79
2022/07/07 06:58:47;;;;;;;15.63;14.53;;;;;;;16.20;99.17;100235.31;5073526;28;20717;-77
2022/07/07 07:01:13;;;;;;;14.03;13.13;;;;;;;16.34;98.98;100248.72;5074216;28;20197;-77
2022/07/07 07:03:40;;;;;;;14.33;13.43;;;;;;;16.24;98.68;100256.19;5068032;28;20657;-77
2022/07/07 07:06:09;;;;;;;12.57;11.87;;;;;;;16.33;98.24;100261.94;5062227;28;20201;-78
2022/07/07 07:08:35;;;;;;;13.90;13.10;;;;;;;16.22;99.03;100255.41;5084832;28;20274;-78
2022/07/07 07:11:02;;;;;;;14.47;13.57;;;;;;;16.11;100.00;100236.56;5094001;28;20271;-79
2022/07/07 07:13:28;;;;;;;12.67;11.87;;;;;;;16.28;99.66;100249.84;5094505;28;20220;-78
2022/07/07 07:15:55;;;;;;;13.80;13.00;;;;;;;16.13;100.00;100240.00;5094302;28;20732;-78
2022/07/07 07:18:21;;;;;;;12.50;11.70;;;;;;;16.24;100.00;100239.53;5094180;28;20228;-78
2022/07/07 07:20:48;;;;;;;12.07;11.37;;;;;;;16.07;100.00;100246.41;5094474;28;20205;-77
2022/07/07 07:23:15;;;;;;;13.77;12.87;;;;;;;16.17;100.00;100238.09;5094241;28;20608;-78
2022/07/07 07:25:42;;;;;;;12.83;12.03;;;;;;;16.33;100.00;100238.25;5094180;28;20212;-77
2022/07/07 07:28:08;;;;;;;12.00;11.30;;;;;;;16.40;100.00;100248.44;5094113;28;20702;-77
2022/07/07 07:30:35;;;;;;;9.93;9.33;;;;;;;16.21;100.00;100251.06;5097545;28;20228;-79
2022/07/07 07:33:01;;;;;;;9.63;9.07;;;;;;;16.26;100.00;100245.56;5098519;28;20638;-81
2022/07/07 07:35:28;;;;;;;7.70;7.20;;;;;;;16.27;100.00;100252.53;5098241;28;20216;-79
2022/07/07 07:37:55;;;;;;;5.93;5.63;;;;;;;16.19;100.00;100265.19;5090101;28;20271;-80
2022/07/07 07:40:33;;;;;;;6.70;6.30;;;;;;;16.07;100.00;100267.47;5082704;28;20206;-82
2022/07/07 07:43:09;;;;;;;6.70;6.20;;;;;;;16.28;100.00;100264.81;5081842;28;20203;-81
2022/07/07 07:45:47;;;;;;;6.20;5.90;;;;;;;16.40;100.00;100274.78;5080771;28;20215;-82
2022/07/07 07:48:16;;;;;;;6.10;5.73;;;;;;;16.52;100.00;100285.69;5081836;28;20226;-81
2022/07/07 07:50:42;;;;;;;5.87;5.53;;;;;;;16.69;100.00;100283.13;5080542;28;20220;-83
2022/07/07 07:53:09;;;;;;;4.70;4.40;;;;;;;16.59;100.00;100293.25;5080739;28;20299;-82
2022/07/07 07:55:38;;;;;;;4.27;4.07;;;;;;;16.70;100.00;100303.25;5075957;28;20217;-82
2022/07/07 07:58:05;;;;;;;4.20;4.00;;;;;;;16.63;100.00;100292.16;5066014;28;20274;-82
2022/07/07 08:00:32;;;;;;;4.50;4.20;;;;;;;16.46;100.00;100302.63;5061483;28;20219;-83
2022/07/07 08:02:58;;;;;;;3.83;3.63;;;;;;;16.44;100.00;100310.59;5065491;28;20203;-83
2022/07/07 08:05:26;;;;;;;3.83;3.63;;;;;;;16.64;100.00;100300.91;5072985;28;20199;-83
2022/07/07 08:07:53;;;;;;;3.90;3.70;;;;;;;16.80;100.00;100315.09;5085109;28;20255;-84
2022/07/07 08:10:20;;;;;;;3.27;3.07;;;;;;;16.79;100.00;100339.75;5073685;28;20223;-85
2022/07/07 08:12:49;;;;;;;3.50;3.20;;;;;;;16.80;100.00;100337.97;5062560;28;20228;-82
2022/07/07 08:15:16;;;;;;;2.60;2.40;;;;;;;16.77;100.00;100323.16;5071404;28;20335;-81
2022/07/07 08:17:57;;;;;;;2.20;2.03;;;;;;;16.91;100.00;100313.75;5069982;28;20237;-84
2022/07/07 08:20:23;;;;;;;1.67;1.57;;;;;;;16.87;100.00;100323.63;5068683;28;20680;-83
2022/07/07 08:22:50;;;;;;;1.67;1.57;;;;;;;16.70;100.00;100324.34;5067375;28;20202;-84
2022/07/07 08:25:16;;;;;;;1.50;1.40;;;;;;;16.82;100.00;100338.78;5073166;28;20195;-83
2022/07/07 08:27:43;;;;;;;2.30;1.40;;;;;;;16.82;100.00;100351.97;5069814;28;20812;-85
2022/07/07 08:30:11;;;;;;;1.00;0.90;;;;;;;16.91;99.82;100355.94;5079034;28;20226;-84
2022/07/07 08:32:44;;;;;;;1.40;1.30;;;;;;;17.05;98.62;100377.28;5070942;28;20724;-85
2022/07/07 08:35:11;;;;;;;1.17;1.17;;;;;;;17.01;98.16;100389.75;5073465;28;20208;-81
2022/07/07 08:37:38;;;;;;;1.00;1.00;;;;;;;17.09;99.22;100378.00;5083935;28;20712;-84
2022/07/07 08:40:06;;;;;;;0.80;0.80;;;;;;;17.07;97.66;100401.78;5088573;28;20204;-87
2022/07/07 08:42:33;;;;;;;0.80;0.80;;;;;;;16.98;97.87;100402.19;5076569;28;20206;-83
2022/07/07 08:44:59;;;;;;;2.20;0.90;;;;;;;17.14;97.55;100407.63;5067315;28;20208;-84
2022/07/07 08:47:27;;;;;;;0.70;0.70;;;;;;;16.97;97.42;100418.97;5073412;28;20220;-85
2022/07/07 08:49:54;;;;;;;1.00;0.90;;;;;;;17.03;97.39;100419.53;5078055;28;20204;-85
2022/07/07 08:52:20;;;;;;;0.80;0.80;;;;;;;16.76;96.04;100452.38;5074694;28;20215;-85
2022/07/07 08:54:48;;;;;;;0.73;0.73;;;;;;;16.70;95.76;100463.19;5077823;28;20208;-82
2022/07/07 08:57:15;;;;;;;1.10;1.00;;;;;;;16.66;97.02;100444.03;5074416;28;20235;-84
2022/07/07 08:59:41;;;;;;;1.20;1.10;;;;;;;16.67;98.00;100419.41;5077054;28;20211;-83
2022/07/07 09:02:08;;;;;;;1.10;1.10;;;;;;;16.68;96.49;100448.28;5074666;28;20212;-83
2022/07/07 09:04:37;;;;;;;1.07;1.07;;;;;;;16.87;96.29;100444.91;5065615;28;20230;-83
2022/07/07 09:07:05;;;;;;;1.60;0.90;;;;;;;16.99;95.40;100469.84;5074860;28;20294;-84
2022/07/07 09:09:42;;;;;;;0.97;0.97;;;;;;;17.09;95.40;100481.69;5078765;28;20254;-84
2022/07/07 09:12:11;;;;;;;0.90;0.90;;;;;;;17.05;94.35;100499.44;5074195;28;20687;-83
2022/07/07 09:14:44;;;;;;;0.93;0.70;;;;;;;16.88;96.03;100481.72;5070971;28;20223;-89
2022/07/07 09:17:17;;;;;;;1.50;0.90;;;;;;;16.86;97.81;100448.44;5063164;28;20228;-86
2022/07/07 09:19:58;;;;;;;1.43;1.37;;;;;;;16.72;100.00;100398.09;5069378;28;20199;-83
2022/07/07 09:22:47;;;;;;;0.80;0.80;;;;;;;16.43;100.00;100397.59;5072864;28;20251;-84
2022/07/07 09:25:15;;;;;;;1.87;1.20;;;;;;;16.30;100.00;100351.66;5081321;28;20265;-86
2022/07/07 09:27:53;;;;;;;1.37;1.27;;;;;;;16.26;100.00;100348.31;5061909;28;20231;-84
2022/07/07 09:30:32;;;;;;;2.00;1.90;;;;;;;16.34;100.00;100354.09;5074936;28;20263;-75
2022/07/07 09:33:02;;;;;;;2.00;1.70;;;;;;;16.68;100.00;100363.09;5060810;28;20219;-77
2022/07/07 09:38:16;;;;;;;1.70;1.60;;;;;;;17.09;100.00;100413.13;5067882;28;20269;-77
2022/07/07 09:40:53;;;;;;;1.63;1.37;;;;;;;17.36;100.00;100444.41;5068515;28;20241;-78
2022/07/07 09:43:19;;;;;;;1.40;1.30;;;;;;;17.32;99.86;100467.44;5060215;28;20189;-77
2022/07/07 09:45:48;;;;;;;1.10;1.10;;;;;;;16.87;98.65;100503.75;5062628;28;20337;-77
2022/07/07 09:48:14;;;;;;;1.80;1.40;;;;;;;16.94;98.20;100524.56;5065196;28;20219;-82
2022/07/07 09:50:42;;;;;;;0.83;0.83;;;;;;;16.77;99.07;100526.13;5071347;28;20231;-80
2022/07/07 09:53:09;;;;;;;1.40;1.40;;;;;;;16.56;98.73;100522.63;5069736;28;20227;-79
2022/07/07 09:55:35;;;;;;;1.40;1.23;;;;;;;16.51;98.43;100542.19;5059117;28;20216;-75
2022/07/07 09:58:02;;;;;;;1.60;1.50;;;;;;;16.61;98.16;100539.13;5061091;28;20267;-75
2022/07/07 10:00:28;;;;;;;1.10;1.10;;;;;;;16.80;98.25;100528.63;5059681;28;20266;-78
2022/07/07 10:02:55;;;;;;;2.00;1.80;;;;;;;16.59;99.53;100522.50;5067205;28;20207;-78
2022/07/07 10:05:24;;;;;;;1.60;1.50;;;;;;;16.65;99.79;100516.13;5072036;28;20203;-79
2022/07/07 10:07:54;;;;;;;2.60;2.40;;;;;;;16.98;99.46;100516.44;5079366;28;20330;-76
2022/07/07 10:10:21;;;;;;;2.20;2.00;;;;;;;17.17;97.44;100542.03;5086183;28;20270;-77
2022/07/07 10:12:50;;;;;;;1.70;1.60;;;;;;;17.33;97.22;100576.50;5093909;28;20858;-79
2022/07/07 10:15:16;;;;;;;1.90;1.80;;;;;;;17.54;96.32;100582.56;5094039;28;20260;-75
2022/07/07 10:17:44;;;;;;;5.50;1.70;;;;;;;17.72;95.28;100589.66;5090734;28;20226;-75
2022/07/07 10:20:12;;;;;;;1.60;1.50;;;;;;;17.77;92.52;100640.44;5090449;28;20213;-73
2022/07/07 10:22:39;;;;;;;1.50;1.40;;;;;;;17.83;91.38;100684.22;5091264;28;20218;-75
2022/07/07 10:25:10;;;;;;;1.70;1.33;;;;;;;18.00;91.75;100691.41;5092961;28;20207;-80
2022/07/07 10:27:42;;;;;;;2.00;1.20;;;;;;;18.13;90.99;100705.75;5093136;28;20231;-79
2022/07/07 10:30:09;;;;;;;0.53;0.53;;;;;;;18.37;89.09;100761.03;5102253;28;20186;-80
2022/07/07 10:32:40;;;;;;;0.43;0.43;;;;;;;18.38;87.94;100791.84;5103403;28;20704;-80
2022/07/07 10:35:10;;;;;;;0.50;0.50;;;;;;;18.26;86.86;100825.81;5096933;28;20209;-79
2022/07/07 10:37:42;;;;;;;0.40;0.40;;;;;;;18.02;88.66;100790.78;5088882;28;20224;-81
2022/07/07 10:40:12;;;;;;;0.60;0.60;;;;;;;17.96;89.00;100783.13;5090481;28;20245;-81
2022/07/07 10:43:00;;;;;;;0.67;0.67;;;;;;;17.77;92.10;100719.66;5096798;28;20301;-80
2022/07/07 10:45:28;;;;;;;0.80;0.70;;;;;;;17.50;94.70;100649.59;5097810;28;20203;-78
2022/07/07 10:47:54;;;;;;;0.93;0.70;;;;;;;17.57;94.82;100622.03;5096679;28;20316;-80
2022/07/07 10:50:29;;;;;;;0.70;0.70;;;;;;;17.40;95.74;100609.56;5096907;28;20207;-77
2022/07/07 10:52:56;;;;;;;1.13;0.70;;;;;;;17.25;95.11;100626.94;5103119;28;20268;-81
2022/07/07 10:55:52;;;;;;;0.47;0.47;;;;;;;17.06;95.09;100629.50;5103249;28;20214;-81
2022/07/07 10:58:56;;;;;;;1.13;0.60;;;;;;;16.90;98.29;100583.63;5104418;28;20257;-80
2022/07/07 11:01:24;;;;;;;0.80;0.70;;;;;;;16.80;100.00;100530.41;5099506;28;20217;-81
2022/07/07 11:03:50;;;;;;;0.87;0.87;;;;;;;16.81;100.00;100509.28;5099211;28;20208;-80
2022/07/07 11:06:17;;;;;;;1.00;1.00;;;;;;;16.51;100.00;100493.00;5095181;28;20210;-76
2022/07/07 11:08:55;;;;;;;1.10;1.00;;;;;;;16.60;100.00;100483.81;5085592;28;20619;-75
2022/07/07 11:11:23;;;;;;;1.10;1.10;;;;;;;16.53;100.00;100493.78;5094356;28;20201;-75
2022/07/07 11:14:04;;;;;;;1.63;1.53;;;;;;;16.39;100.00;100497.00;5094655;28;20227;-75
2022/07/07 11:16:31;;;;;;;1.50;1.33;;;;;;;16.17;100.00;100510.19;5082778;28;20214;-76
2022/07/07 11:18:59;;;;;;;1.60;1.50;;;;;;;16.26;100.00;100515.09;5064733;28;20225;-75
2022/07/07 11:21:41;;;;;;;2.07;1.97;;;;;;;16.22;100.00;100537.22;5061909;28;20194;-75
2022/07/07 11:24:16;;;;;;;1.90;1.80;;;;;;;16.08;100.00;100550.94;5056983;28;20190;-75
2022/07/07 11:26:54;;;;;;;2.30;2.10;;;;;;;16.32;100.00;100558.75;5061375;28;20559;-76